Time;durP1;ratioP1;P1;durP2;ratioP2;P2;SDS_P1;SDS_P2;PMS_P1;PMS_P2;Temp;Humidity;BMP_temperature;BMP_pressure;BME280_temperature;BME280_humidity;BME280_pressure;Samples;Min_cycle;Max_cycle;Signal;HPM_P1;HPM_P2
2023/08/19 00:01:03;;;;;;;11.55;10.30;;;20.70;99.90;;;;;;4974402;28;20620;-89
2023/08/19 00:03:29;;;;;;;11.02;9.93;;;20.70;99.90;;;;;;4976005;28;20176;-90
2023/08/19 00:05:55;;;;;;;12.35;11.25;;;20.70;99.90;;;;;;4990015;28;20642;-91
2023/08/19 00:08:22;;;;;;;14.00;12.63;;;20.70;99.90;;;;;;4994221;28;20207;-90
2023/08/19 00:10:47;;;;;;;13.23;11.85;;;20.70;99.90;;;;;;4994226;28;20180;-89
2023/08/19 00:13:13;;;;;;;16.75;10.95;;;20.70;99.90;;;;;;4995186;28;20638;-90
2023/08/19 00:15:39;;;;;;;12.43;11.15;;;20.60;99.90;;;;;;4994562;28;20218;-89
2023/08/19 00:18:07;;;;;;;14.05;12.13;;;20.50;99.90;;;;;;4978160;28;20191;-90
2023/08/19 00:20:32;;;;;;;13.23;11.93;;;20.40;99.90;;;;;;4975995;28;20251;-90
2023/08/19 00:22:58;;;;;;;15.43;12.63;;;20.30;99.90;;;;;;4974876;28;20608;-90
2023/08/19 00:25:25;;;;;;;14.35;12.60;;;20.30;99.90;;;;;;4985721;28;20211;-89
2023/08/19 00:27:52;;;;;;;14.85;13.13;;;20.30;99.90;;;;;;4993677;28;20262;-90
2023/08/19 00:30:19;;;;;;;13.77;12.32;;;20.20;99.90;;;;;;4993212;28;20218;-89
2023/08/19 00:32:46;;;;;;;13.10;11.25;;;20.10;99.90;;;;;;4995081;28;20208;-90
2023/08/19 00:35:13;;;;;;;12.70;11.48;;;20.10;99.90;;;;;;4994398;28;20548;-89
2023/08/19 00:37:43;;;;;;;13.55;12.20;;;20.10;99.90;;;;;;4993935;28;20254;-90
2023/08/19 00:40:15;;;;;;;14.85;13.13;;;20.20;99.90;;;;;;4993919;28;20303;-90
2023/08/19 00:42:41;;;;;;;14.75;13.32;;;20.20;99.90;;;;;;4994159;28;20184;-90
2023/08/19 00:45:08;;;;;;;13.98;12.65;;;20.30;99.90;;;;;;4994058;28;20207;-90
2023/08/19 00:47:36;;;;;;;13.15;11.85;;;20.30;99.90;;;;;;4994537;28;20184;-90
2023/08/19 00:50:12;;;;;;;14.02;12.52;;;20.40;99.90;;;;;;4993475;28;20184;-90
2023/08/19 00:52:38;;;;;;;14.38;12.88;;;20.40;99.90;;;;;;4993756;28;20211;-90
2023/08/19 00:55:06;;;;;;;14.10;11.55;;;20.30;99.90;;;;;;4993816;28;20190;-90
2023/08/19 00:57:37;;;;;;;12.40;11.27;;;20.30;99.90;;;;;;4994588;28;20187;-90
2023/08/19 01:00:04;;;;;;;11.50;10.38;;;20.20;99.90;;;;;;4993935;28;20190;-90
2023/08/19 01:02:30;;;;;;;11.52;10.43;;;20.10;99.90;;;;;;4994962;28;20211;-90
2023/08/19 01:04:56;;;;;;;11.85;9.45;;;20.10;99.90;;;;;;4995192;28;20255;-90
2023/08/19 01:07:33;;;;;;;13.63;12.30;;;20.10;99.90;;;;;;5421512;23;20635;-92
2023/08/19 01:10:07;;;;;;;13.60;12.25;;;20.20;99.90;;;;;;4977320;28;20191;-93
2023/08/19 01:13:15;;;;;;;15.70;13.90;;;20.20;99.90;;;;;;5005231;28;20240;-96
2023/08/19 01:15:50;;;;;;;16.90;13.77;;;20.30;99.90;;;;;;4962695;28;20208;-96
2023/08/19 01:18:17;;;;;;;14.13;12.68;;;20.30;99.90;;;;;;4970110;28;20191;-95
2023/08/19 01:20:43;;;;;;;15.57;13.80;;;20.30;99.90;;;;;;4977518;28;20192;-95
2023/08/19 01:23:17;;;;;;;15.38;13.85;;;20.30;99.90;;;;;;4977533;28;20194;-96
2023/08/19 01:25:43;;;;;;;17.67;14.38;;;20.30;99.90;;;;;;4989235;28;20180;-96
2023/08/19 01:28:08;;;;;;;18.85;16.25;;;20.20;99.90;;;;;;4978494;28;20191;-96
2023/08/19 01:30:34;;;;;;;17.40;15.70;;;20.30;99.90;;;;;;4977733;28;20181;-96
2023/08/19 01:33:03;;;;;;;20.15;18.00;;;20.30;99.90;;;;;;4977653;28;20252;-96
2023/08/19 01:35:34;;;;;;;20.50;17.42;;;20.30;99.90;;;;;;4977779;28;20172;-96
2023/08/19 01:38:12;;;;;;;19.00;17.10;;;20.30;99.90;;;;;;4974392;28;20196;-95
2023/08/19 01:40:39;;;;;;;21.42;17.35;;;20.30;99.90;;;;;;4978191;28;20603;-95
2023/08/19 01:43:10;;;;;;;18.20;16.27;;;20.30;99.90;;;;;;4977842;28;20223;-96
2023/08/19 01:45:37;;;;;;;20.77;17.80;;;20.30;99.90;;;;;;4981328;28;20183;-95
2023/08/19 01:48:03;;;;;;;20.83;17.52;;;20.40;99.90;;;;;;4977849;28;20239;-96
2023/08/19 01:50:35;;;;;;;19.30;17.40;;;20.40;99.90;;;;;;4977632;28;20176;-94
2023/08/19 01:53:00;;;;;;;20.73;17.13;;;20.30;99.90;;;;;;4976748;28;20247;-94
2023/08/19 01:55:26;;;;;;;18.88;16.65;;;20.20;99.90;;;;;;4977232;28;20215;-95
2023/08/19 01:57:52;;;;;;;20.05;17.02;;;20.30;99.90;;;;;;4976897;28;20673;-94
2023/08/19 02:00:28;;;;;;;18.90;17.10;;;20.20;99.90;;;;;;4993439;28;20187;-95
2023/08/19 02:02:56;;;;;;;18.65;15.40;;;20.20;99.90;;;;;;4993218;28;20189;-95
2023/08/19 02:05:24;;;;;;;18.25;16.45;;;20.20;99.90;;;;;;4993283;28;20607;-95
2023/08/19 02:07:50;;;;;;;17.67;15.98;;;20.20;99.90;;;;;;4992690;28;20232;-95
2023/08/19 02:10:16;;;;;;;18.90;16.67;;;20.30;99.90;;;;;;4977500;28;20183;-94
2023/08/19 02:12:42;;;;;;;19.67;17.02;;;20.30;99.90;;;;;;4977039;28;20299;-94
2023/08/19 02:15:08;;;;;;;20.75;18.77;;;20.30;99.90;;;;;;4977316;28;20284;-95
2023/08/19 02:17:35;;;;;;;19.60;17.63;;;20.30;99.90;;;;;;4980239;28;20191;-96
2023/08/19 02:20:17;;;;;;;23.65;19.70;;;20.30;99.90;;;;;;4983507;28;20189;-94
2023/08/19 02:22:43;;;;;;;22.70;20.30;;;20.40;99.90;;;;;;4979180;28;20196;-95
2023/08/19 02:25:14;;;;;;;22.52;20.23;;;20.40;99.90;;;;;;4981208;28;20203;-96
2023/08/19 02:27:39;;;;;;;21.50;19.30;;;20.30;99.90;;;;;;4977838;28;20211;-94
2023/08/19 02:30:13;;;;;;;23.27;20.88;;;20.30;99.90;;;;;;4979818;28;20267;-95
2023/08/19 02:32:41;;;;;;;23.80;21.48;;;20.30;99.90;;;;;;4979757;28;20216;-95
2023/08/19 02:35:10;;;;;;;23.45;19.67;;;20.30;99.90;;;;;;4976265;28;20207;-96
2023/08/19 02:37:37;;;;;;;23.70;21.17;;;20.20;99.90;;;;;;4975819;28;20264;-93
2023/08/19 02:40:04;;;;;;;23.63;21.15;;;20.20;99.90;;;;;;4976743;28;20210;-94
2023/08/19 02:42:29;;;;;;;25.05;21.92;;;20.20;99.90;;;;;;4976351;28;20187;-96
2023/08/19 02:44:56;;;;;;;23.02;19.35;;;20.20;99.90;;;;;;4977483;28;20181;-95
2023/08/19 02:47:22;;;;;;;23.95;20.75;;;20.20;99.90;;;;;;4980320;28;20665;-96
2023/08/19 02:49:54;;;;;;;23.35;21.05;;;20.20;99.90;;;;;;4980039;28;20263;-96
2023/08/19 02:52:20;;;;;;;23.58;21.05;;;20.20;99.90;;;;;;4976794;28;20311;-95
2023/08/19 02:54:46;;;;;;;23.63;20.58;;;20.20;99.90;;;;;;4978153;28;20199;-96
2023/08/19 02:57:11;;;;;;;23.50;20.50;;;20.20;99.90;;;;;;4977680;28;20188;-94
2023/08/19 02:59:38;;;;;;;22.73;20.33;;;20.20;99.90;;;;;;4976310;28;20180;-96
2023/08/19 03:02:08;;;;;;;23.88;21.27;;;20.20;99.90;;;;;;4978847;28;20231;-96
2023/08/19 03:04:35;;;;;;;24.50;21.73;;;20.20;99.90;;;;;;4980036;28;20319;-95
2023/08/19 03:07:04;;;;;;;24.52;21.65;;;20.20;99.90;;;;;;4999231;28;20257;-96
2023/08/19 03:09:36;;;;;;;25.70;22.88;;;20.20;99.90;;;;;;4985377;28;20188;-96
2023/08/19 03:12:03;;;;;;;24.88;22.25;;;20.20;99.90;;;;;;4978368;28;20220;-96
2023/08/19 03:14:28;;;;;;;25.00;21.63;;;20.20;99.90;;;;;;4976983;28;20181;-96
2023/08/19 03:16:54;;;;;;;25.45;20.58;;;20.20;99.90;;;;;;4976327;28;20624;-96
2023/08/19 03:19:20;;;;;;;26.75;20.65;;;20.00;99.90;;;;;;4976836;28;20189;-96
2023/08/19 03:21:56;;;;;;;24.63;22.00;;;20.00;99.90;;;;;;4976342;28;20224;-96
2023/08/19 03:24:22;;;;;;;23.67;21.15;;;19.90;99.90;;;;;;4976054;28;20258;-95
2023/08/19 03:26:48;;;;;;;23.50;21.00;;;19.80;99.90;;;;;;4975873;28;20607;-96
2023/08/19 03:29:14;;;;;;;21.55;19.45;;;19.80;99.90;;;;;;4975899;28;20192;-96
2023/08/19 03:31:41;;;;;;;21.98;19.83;;;19.80;99.90;;;;;;4975532;28;20307;-95
2023/08/19 03:34:07;;;;;;;22.77;20.52;;;19.80;99.90;;;;;;4975864;28;20636;-96
2023/08/19 03:36:33;;;;;;;22.77;20.42;;;19.80;99.90;;;;;;4977226;28;20184;-96
2023/08/19 03:38:58;;;;;;;21.38;19.27;;;19.80;99.90;;;;;;4976494;28;20176;-96
2023/08/19 03:41:25;;;;;;;20.60;18.48;;;19.80;99.90;;;;;;4977434;28;20188;-96
2023/08/19 03:43:51;;;;;;;24.48;21.15;;;19.90;99.90;;;;;;4976896;28;20180;-95
2023/08/19 03:46:17;;;;;;;24.55;22.15;;;19.80;99.90;;;;;;4977392;28;20331;-96
2023/08/19 03:48:45;;;;;;;26.13;22.80;;;19.80;99.90;;;;;;4982328;28;20619;-96
2023/08/19 03:51:10;;;;;;;25.80;22.90;;;19.80;99.90;;;;;;4979984;28;20189;-96
2023/08/19 03:53:36;;;;;;;26.05;22.20;;;19.90;99.90;;;;;;4976110;28;20212;-95
2023/08/19 03:56:02;;;;;;;25.70;22.90;;;19.80;99.90;;;;;;4975737;28;20495;-95
2023/08/19 03:58:28;;;;;;;29.50;23.90;;;19.80;99.90;;;;;;4976761;28;20271;-96
2023/08/19 04:00:53;;;;;;;26.85;23.27;;;19.80;99.90;;;;;;4976259;28;20267;-96
2023/08/19 04:03:19;;;;;;;26.10;23.42;;;19.80;99.90;;;;;;4975807;28;20172;-95
2023/08/19 04:05:45;;;;;;;26.67;24.00;;;19.80;99.90;;;;;;4978212;28;20200;-96
2023/08/19 04:08:14;;;;;;;26.45;23.65;;;19.80;99.90;;;;;;4972754;28;20229;-96
2023/08/19 04:10:48;;;;;;;28.08;25.08;;;19.80;99.90;;;;;;4978047;28;20684;-96
2023/08/19 04:13:16;;;;;;;27.92;25.10;;;19.80;99.90;;;;;;4956923;28;20236;-96
2023/08/19 04:15:42;;;;;;;26.35;23.58;;;19.90;99.90;;;;;;4957463;28;20205;-96
2023/08/19 04:18:08;;;;;;;26.73;23.77;;;19.80;99.90;;;;;;4956353;28;20613;-95
2023/08/19 04:20:50;;;;;;;28.98;26.08;;;19.80;99.90;;;;;;4955814;28;20521;-95
2023/08/19 04:23:18;;;;;;;28.13;25.20;;;19.80;99.90;;;;;;4955831;28;20177;-95
2023/08/19 04:25:43;;;;;;;29.00;25.90;;;19.80;99.90;;;;;;4956781;28;20561;-96
2023/08/19 04:28:10;;;;;;;29.20;24.25;;;19.90;99.90;;;;;;4972481;28;20215;-96
2023/08/19 04:30:42;;;;;;;27.45;23.75;;;19.80;99.90;;;;;;4974850;28;20227;-95
2023/08/19 04:33:08;;;;;;;32.22;27.20;;;19.80;99.90;;;;;;4975065;28;20541;-95
2023/08/19 04:35:34;;;;;;;29.60;26.60;;;19.80;99.90;;;;;;4975693;28;20173;-95
2023/08/19 04:38:00;;;;;;;30.95;27.70;;;19.90;99.90;;;;;;4976146;28;20191;-89
2023/08/19 04:40:25;;;;;;;29.73;26.73;;;19.90;99.90;;;;;;4975022;28;20177;-89
2023/08/19 04:42:51;;;;;;;29.52;26.42;;;19.90;99.90;;;;;;4978224;28;20183;-89
2023/08/19 04:45:17;;;;;;;29.33;26.15;;;19.80;99.90;;;;;;4978697;28;20180;-89
2023/08/19 04:47:43;;;;;;;31.38;28.15;;;19.80;99.90;;;;;;4977634;28;20188;-89
2023/08/19 04:50:09;;;;;;;28.95;25.70;;;19.80;99.90;;;;;;4977372;28;20719;-89
2023/08/19 04:52:37;;;;;;;31.55;28.40;;;19.80;99.90;;;;;;4978271;28;20240;-90
2023/08/19 04:55:06;;;;;;;35.15;29.85;;;19.80;99.90;;;;;;4978503;28;20584;-90
2023/08/19 04:57:32;;;;;;;33.00;29.38;;;19.80;99.90;;;;;;4978293;28;20180;-89
2023/08/19 04:59:58;;;;;;;31.02;27.85;;;19.80;99.90;;;;;;4978260;28;20173;-89
2023/08/19 05:02:40;;;;;;;28.55;25.45;;;19.80;99.90;;;;;;4978073;28;20678;-89
2023/08/19 05:05:07;;;;;;;29.65;26.45;;;19.80;99.90;;;;;;4978151;28;20495;-89
2023/08/19 05:07:32;;;;;;;29.10;25.92;;;19.90;99.90;;;;;;4977908;28;20263;-89
2023/08/19 05:09:58;;;;;;;31.30;26.52;;;19.90;99.90;;;;;;4977513;28;20208;-89
2023/08/19 05:12:25;;;;;;;29.90;26.73;;;19.90;99.90;;;;;;4977648;28;20650;-90
2023/08/19 05:14:51;;;;;;;35.38;26.05;;;20.00;99.90;;;;;;4978243;28;20260;-89
2023/08/19 05:17:17;;;;;;;32.60;28.23;;;20.10;99.90;;;;;;4977957;28;20235;-88
2023/08/19 05:19:43;;;;;;;33.97;28.52;;;20.10;99.90;;;;;;4978698;28;20623;-89
2023/08/19 05:22:15;;;;;;;34.90;28.73;;;20.20;99.90;;;;;;4994051;28;20176;-89
2023/08/19 05:24:41;;;;;;;32.42;28.23;;;20.30;99.90;;;;;;4994029;28;20537;-90
2023/08/19 05:27:07;;;;;;;32.22;26.17;;;20.30;99.90;;;;;;4993867;28;20508;-90
2023/08/19 05:29:32;;;;;;;29.13;26.02;;;20.40;99.90;;;;;;4977130;28;20191;-90
2023/08/19 05:32:00;;;;;;;30.98;27.77;;;20.40;99.90;;;;;;4977577;28;20549;-89
2023/08/19 05:34:26;;;;;;;29.98;26.30;;;20.50;99.90;;;;;;4977576;28;20231;-89
2023/08/19 05:36:52;;;;;;;28.13;25.23;;;20.50;99.90;;;;;;4977401;28;20232;-89
2023/08/19 05:39:17;;;;;;;30.73;25.90;;;20.50;99.90;;;;;;4977234;28;20227;-89
2023/08/19 05:41:47;;;;;;;29.45;26.00;;;20.60;99.90;;;;;;4977430;28;20264;-89
2023/08/19 05:44:12;;;;;;;29.00;24.75;;;20.60;99.90;;;;;;4976709;28;20177;-89
2023/08/19 05:46:38;;;;;;;25.13;22.63;;;20.60;99.90;;;;;;4976786;28;20239;-90
2023/08/19 05:49:04;;;;;;;26.67;23.75;;;20.70;99.90;;;;;;4977374;28;20279;-90
2023/08/19 05:51:40;;;;;;;26.45;23.42;;;20.70;99.90;;;;;;4993457;28;20180;-89
2023/08/19 05:54:06;;;;;;;25.73;23.15;;;20.70;99.90;;;;;;4992726;28;20188;-91
2023/08/19 05:56:32;;;;;;;24.17;21.77;;;20.80;99.90;;;;;;4993611;28;20176;-92
2023/08/19 05:58:58;;;;;;;28.02;23.67;;;20.80;99.90;;;;;;4988563;28;20276;-89
2023/08/19 06:01:23;;;;;;;24.73;22.05;;;21.00;99.90;;;;;;4958139;28;20185;-89
2023/08/19 06:03:50;;;;;;;23.92;21.60;;;21.00;99.90;;;;;;4993037;28;20207;-89
2023/08/19 06:06:16;;;;;;;26.40;23.70;;;21.00;99.90;;;;;;4977046;28;20184;-92
2023/08/19 06:08:42;;;;;;;25.98;23.25;;;21.20;99.90;;;;;;4976680;28;20228;-89
2023/08/19 06:11:09;;;;;;;22.92;20.65;;;21.30;99.90;;;;;;4977248;28;20176;-89
2023/08/19 06:13:37;;;;;;;24.80;22.27;;;21.40;99.90;;;;;;4976873;28;20295;-91
2023/08/19 06:16:05;;;;;;;23.05;20.85;;;21.50;99.90;;;;;;4978254;28;20177;-92
2023/08/19 06:18:33;;;;;;;23.60;20.92;;;21.60;99.90;;;;;;4990995;28;20201;-93
2023/08/19 06:21:01;;;;;;;21.35;19.27;;;21.70;99.90;;;;;;4995047;28;20263;-91
2023/08/19 06:23:30;;;;;;;22.60;19.73;;;21.80;99.90;;;;;;5000958;28;20180;-89
2023/08/19 06:25:56;;;;;;;20.83;18.83;;;22.00;99.90;;;;;;4996115;28;20179;-90
2023/08/19 06:28:24;;;;;;;21.95;19.67;;;22.20;99.90;;;;;;4993855;28;20179;-90
2023/08/19 06:30:51;;;;;;;22.35;20.00;;;22.30;99.90;;;;;;4975851;28;20203;-89
2023/08/19 06:33:20;;;;;;;21.48;19.13;;;22.50;99.90;;;;;;4975886;28;20263;-90
2023/08/19 06:35:48;;;;;;;18.98;17.00;;;22.70;99.90;;;;;;4976766;28;20181;-90
2023/08/19 06:38:34;;;;;;;21.05;18.85;;;22.90;99.90;;;;;;4976208;28;20630;-89
2023/08/19 06:41:10;;;;;;;20.42;18.42;;;23.00;99.90;;;;;;4992039;28;21059;-87
2023/08/19 06:43:40;;;;;;;20.08;17.95;;;23.10;99.90;;;;;;4968919;28;20643;-90
2023/08/19 06:46:07;;;;;;;19.10;17.23;;;23.30;99.90;;;;;;4957140;28;20181;-89
2023/08/19 06:48:34;;;;;;;21.90;17.00;;;23.30;99.90;;;;;;4964450;28;20180;-88
2023/08/19 06:51:01;;;;;;;18.58;16.58;;;23.40;99.90;;;;;;4976933;28;20194;-95
2023/08/19 06:53:28;;;;;;;17.42;15.43;;;23.60;99.90;;;;;;4975907;28;20628;-95
2023/08/19 06:56:29;;;;;;;16.17;14.48;;;23.70;99.90;;;;;;4992475;28;20284;-95
2023/08/19 06:59:12;;;;;;;18.83;15.27;;;23.90;99.90;;;;;;4992051;28;20188;-89
2023/08/19 07:01:40;;;;;;;16.02;14.45;;;24.10;99.90;;;;;;4976261;28;20184;-90
2023/08/19 07:04:10;;;;;;;15.02;13.57;;;24.20;99.90;;;;;;4992259;28;20678;-90
2023/08/19 07:06:37;;;;;;;14.48;12.98;;;24.30;99.90;;;;;;4992205;28;20264;-88
2023/08/19 07:09:05;;;;;;;14.90;13.35;;;24.30;99.90;;;;;;4992092;28;20197;-89
2023/08/19 07:11:32;;;;;;;13.20;11.88;;;24.50;99.90;;;;;;4974828;28;20188;-90
2023/08/19 07:13:59;;;;;;;12.80;11.40;;;24.50;99.90;;;;;;4974362;28;20196;-90
2023/08/19 07:16:28;;;;;;;12.95;11.73;;;24.70;99.90;;;;;;4971373;28;20184;-90
2023/08/19 07:18:57;;;;;;;13.88;11.40;;;24.80;99.90;;;;;;4973231;28;20203;-90
2023/08/19 07:21:26;;;;;;;11.30;10.15;;;24.90;99.90;;;;;;4990674;28;20183;-89
2023/08/19 07:23:56;;;;;;;13.00;11.10;;;25.00;99.90;;;;;;4990051;28;20279;-90
2023/08/19 07:26:26;;;;;;;10.90;9.35;;;25.10;99.90;;;;;;4974074;28;20549;-92
2023/08/19 07:28:52;;;;;;;13.10;11.75;;;25.20;99.90;;;;;;4974470;28;20188;-91
2023/08/19 07:31:22;;;;;;;10.80;9.75;;;25.20;99.90;;;;;;4975262;28;20228;-89
2023/08/19 07:33:49;;;;;;;11.40;10.25;;;25.30;99.90;;;;;;4975914;28;20243;-91
2023/08/19 07:36:15;;;;;;;11.20;10.05;;;25.50;99.90;;;;;;4975705;28;20169;-95
2023/08/19 07:38:41;;;;;;;10.35;9.18;;;25.60;99.90;;;;;;4974884;28;20251;-90
2023/08/19 07:41:07;;;;;;;10.20;9.05;;;25.70;99.90;;;;;;4991602;28;20176;-91
2023/08/19 07:43:43;;;;;;;10.27;9.27;;;25.70;99.90;;;;;;4991553;28;20188;-90
2023/08/19 07:46:08;;;;;;;10.02;9.13;;;25.80;99.90;;;;;;4990826;28;20192;-92
2023/08/19 07:48:34;;;;;;;10.98;9.88;;;25.80;99.90;;;;;;4975399;28;20324;-92
2023/08/19 07:51:00;;;;;;;10.98;9.02;;;25.90;99.90;;;;;;4983843;28;20574;-92
2023/08/19 07:53:26;;;;;;;10.20;9.27;;;26.00;99.90;;;;;;4955816;28;20308;-93
2023/08/19 07:55:51;;;;;;;11.38;8.70;;;26.10;99.90;;;;;;4957360;28;20268;-93
2023/08/19 07:58:17;;;;;;;10.32;8.95;;;26.20;99.90;;;;;;4976491;28;20185;-90
2023/08/19 08:00:43;;;;;;;11.45;9.02;;;26.20;99.90;;;;;;4970978;28;20189;-90
2023/08/19 08:03:11;;;;;;;9.85;8.82;;;26.30;99.90;;;;;;4989997;28;20181;-91
2023/08/19 08:05:37;;;;;;;9.35;8.25;;;26.30;99.90;;;;;;4971759;28;20184;-92
2023/08/19 08:08:06;;;;;;;9.63;8.63;;;26.40;99.90;;;;;;4983716;28;20235;-91
2023/08/19 08:10:32;;;;;;;9.05;8.15;;;26.50;99.90;;;;;;4966496;28;20193;-91
2023/08/19 08:12:57;;;;;;;10.23;8.20;;;26.50;99.90;;;;;;4975597;28;20678;-94
2023/08/19 08:15:23;;;;;;;10.73;8.48;;;26.60;99.90;;;;;;4974968;28;20184;-92
2023/08/19 08:17:49;;;;;;;9.57;8.43;;;26.60;99.90;;;;;;4978887;28;20203;-93
2023/08/19 08:20:15;;;;;;;8.55;7.75;;;26.60;99.90;;;;;;4995577;28;20172;-92
2023/08/19 08:22:43;;;;;;;9.25;7.38;;;26.60;99.90;;;;;;4994922;28;20192;-91
2023/08/19 08:25:15;;;;;;;9.02;8.13;;;26.70;99.90;;;;;;4978783;28;20188;-88
2023/08/19 08:27:41;;;;;;;8.70;7.60;;;26.90;99.90;;;;;;4978669;28;20227;-94
2023/08/19 08:30:07;;;;;;;8.70;6.82;;;27.00;99.90;;;;;;4978693;28;20612;-93
2023/08/19 08:32:35;;;;;;;8.18;7.43;;;27.10;99.90;;;;;;4978920;28;20262;-95
2023/08/19 08:35:05;;;;;;;7.32;6.70;;;27.20;99.90;;;;;;4978848;28;20184;-92
2023/08/19 08:37:32;;;;;;;7.03;6.32;;;27.40;99.90;;;;;;4978897;28;20254;-90
2023/08/19 08:39:57;;;;;;;9.60;6.78;;;27.50;99.90;;;;;;4975184;28;20177;-92
2023/08/19 08:42:26;;;;;;;7.55;6.38;;;27.60;99.90;;;;;;4969084;28;20276;-94
2023/08/19 08:44:54;;;;;;;7.47;6.68;;;27.60;99.90;;;;;;4973385;28;20192;-95
2023/08/19 08:47:20;;;;;;;7.55;6.30;;;27.60;99.90;;;;;;4975540;28;20177;-94
2023/08/19 08:49:49;;;;;;;8.80;6.53;;;27.70;99.90;;;;;;4975091;28;20185;-93
2023/08/19 08:52:16;;;;;;;7.45;6.75;;;27.70;99.90;;;;;;4984754;28;20232;-91
2023/08/19 08:54:44;;;;;;;8.98;6.57;;;27.70;99.90;;;;;;4977261;28;20203;-92
2023/08/19 08:57:12;;;;;;;6.57;5.82;;;27.70;99.90;;;;;;4976889;28;20182;-90
2023/08/19 08:59:38;;;;;;;7.45;6.40;;;27.80;99.90;;;;;;4977244;28;20188;-93
2023/08/19 09:02:07;;;;;;;6.38;5.78;;;27.80;99.90;;;;;;4977955;28;20180;-90
2023/08/19 09:04:46;;;;;;;6.70;6.10;;;27.90;99.90;;;;;;4977619;28;20184;-92
2023/08/19 09:07:32;;;;;;;6.13;5.60;;;28.00;99.90;;;;;;4977547;28;20254;-95
2023/08/19 09:10:01;;;;;;;7.60;5.75;;;28.10;99.90;;;;;;4994718;28;20180;-93
2023/08/19 09:12:31;;;;;;;6.60;6.00;;;28.20;99.90;;;;;;4993782;28;20263;-91
2023/08/19 09:15:03;;;;;;;11.25;5.60;;;28.20;99.90;;;;;;4976679;28;20205;-91
2023/08/19 09:17:33;;;;;;;9.52;6.13;;;28.30;99.90;;;;;;4978049;28;20172;-90
2023/08/19 09:20:00;;;;;;;6.25;5.72;;;28.30;99.90;;;;;;4978083;28;20180;-92
2023/08/19 09:22:25;;;;;;;8.15;5.85;;;28.30;99.90;;;;;;4976843;28;20271;-90
2023/08/19 09:24:53;;;;;;;7.35;5.70;;;28.50;99.90;;;;;;4974084;28;20276;-91
2023/08/19 09:27:27;;;;;;;6.15;5.50;;;28.50;99.90;;;;;;4966763;28;20192;-96
2023/08/19 09:29:53;;;;;;;6.38;5.78;;;28.50;99.90;;;;;;4977539;28;20180;-90
2023/08/19 09:32:41;;;;;;;5.72;5.05;;;28.60;99.90;;;;;;4977437;28;20386;-95
2023/08/19 09:35:12;;;;;;;5.63;5.13;;;28.60;99.90;;;;;;4977822;28;20184;-93
2023/08/19 09:37:40;;;;;;;6.28;5.18;;;28.70;99.90;;;;;;4976922;28;20188;-92
2023/08/19 09:40:17;;;;;;;7.32;6.00;;;28.80;99.90;;;;;;4977706;28;20526;-91
2023/08/19 09:42:48;;;;;;;7.53;5.35;;;28.80;99.90;;;;;;4976857;28;20311;-93
2023/08/19 09:45:21;;;;;;;6.47;5.15;;;28.80;99.90;;;;;;4977809;28;20188;-90
2023/08/19 09:47:48;;;;;;;8.57;5.05;;;28.80;99.90;;;;;;4992938;28;20199;-94
2023/08/19 09:50:17;;;;;;;5.82;5.20;;;28.70;99.90;;;;;;4977846;28;20263;-93
2023/08/19 09:52:56;;;;;;;5.45;4.95;;;28.70;99.90;;;;;;4977399;28;20250;-93
2023/08/19 09:55:33;;;;;;;9.45;4.78;;;28.70;99.90;;;;;;4977768;28;20595;-91
2023/08/19 09:57:59;;;;;;;5.38;4.82;;;28.80;99.90;;;;;;4985673;28;20214;-89
2023/08/19 10:00:25;;;;;;;6.93;4.68;;;28.90;99.90;;;;;;4978341;28;20179;-91
2023/08/19 10:02:51;;;;;;;6.13;5.22;;;29.00;99.90;;;;;;4976970;28;20184;-91
2023/08/19 10:05:25;;;;;;;7.15;5.20;;;29.20;99.90;;;;;;4975850;28;20630;-93
2023/08/19 10:07:59;;;;;;;7.65;4.82;;;29.40;99.90;;;;;;4976382;28;20271;-90
2023/08/19 10:10:30;;;;;;;5.03;4.40;;;29.40;99.90;;;;;;4977081;28;20172;-91
2023/08/19 10:12:58;;;;;;;5.32;4.47;;;29.60;99.90;;;;;;4975270;28;20224;-94
2023/08/19 10:15:26;;;;;;;5.65;4.70;;;29.70;99.90;;;;;;4977681;28;20222;-92
2023/08/19 10:17:55;;;;;;;8.32;5.60;;;29.80;99.90;;;;;;4977625;28;20187;-94
2023/08/19 10:20:26;;;;;;;7.10;4.72;;;29.90;99.90;;;;;;4976915;28;20247;-94
2023/08/19 10:22:56;;;;;;;5.55;4.72;;;30.00;99.90;;;;;;4975344;28;20195;-92
2023/08/19 10:25:23;;;;;;;6.38;5.00;;;30.10;99.90;;;;;;4976506;28;20180;-96
2023/08/19 10:27:49;;;;;;;5.15;4.15;;;30.20;99.90;;;;;;4975564;28;20195;-92
2023/08/19 10:30:24;;;;;;;5.03;4.35;;;30.40;99.90;;;;;;4974997;28;20191;-94
2023/08/19 10:32:50;;;;;;;7.13;4.43;;;30.30;99.90;;;;;;4991539;28;20221;-94
2023/08/19 10:35:17;;;;;;;5.65;4.15;;;30.20;99.90;;;;;;4976344;28;20258;-96
2023/08/19 10:37:48;;;;;;;6.43;3.97;;;30.00;99.90;;;;;;4976194;28;20190;-95
2023/08/19 10:40:21;;;;;;;3.45;3.15;;;29.80;99.90;;;;;;4992228;28;20566;-96
2023/08/19 10:43:00;;;;;;;3.70;3.40;;;29.70;99.90;;;;;;4992458;28;20246;-92
2023/08/19 10:45:36;;;;;;;5.38;3.78;;;29.50;99.90;;;;;;4992498;28;20186;-93
2023/08/19 10:48:02;;;;;;;4.53;3.60;;;29.50;99.90;;;;;;4992127;28;20175;-93
2023/08/19 10:50:35;;;;;;;4.90;3.78;;;29.50;99.90;;;;;;4976908;28;20187;-95
2023/08/19 10:53:06;;;;;;;4.78;3.63;;;29.60;99.90;;;;;;4975978;28;20216;-91
2023/08/19 10:55:55;;;;;;;7.45;3.40;;;29.70;99.90;;;;;;4972734;28;20181;-93
2023/08/19 10:58:22;;;;;;;5.28;3.85;;;29.90;99.90;;;;;;4973485;28;20211;-93
2023/08/19 11:00:48;;;;;;;5.13;3.58;;;30.00;99.90;;;;;;4973583;28;20184;-91
2023/08/19 11:03:17;;;;;;;8.73;3.90;;;30.20;99.90;;;;;;4975405;28;20226;-95
2023/08/19 11:05:51;;;;;;;7.20;3.63;;;30.30;99.90;;;;;;4992013;28;20184;-93
2023/08/19 11:08:17;;;;;;;7.20;3.60;;;30.40;99.90;;;;;;4974592;28;20223;-90
2023/08/19 11:10:54;;;;;;;7.50;3.90;;;30.50;99.90;;;;;;4976046;28;20184;-92
2023/08/19 11:13:23;;;;;;;6.50;3.70;;;30.60;99.90;;;;;;4992119;28;20219;-89
2023/08/19 11:15:49;;;;;;;3.75;3.42;;;30.60;99.90;;;;;;4976226;28;20615;-93
2023/08/19 11:18:41;;;;;;;6.50;3.58;;;30.80;99.90;;;;;;4975694;28;20187;-94
2023/08/19 11:21:06;;;;;;;6.15;3.58;;;30.80;99.90;;;;;;4984183;28;20172;-89
2023/08/19 11:23:35;;;;;;;5.47;3.47;;;30.90;99.90;;;;;;4975213;28;20231;-94
2023/08/19 11:26:01;;;;;;;4.30;3.83;;;30.90;99.90;;;;;;4975831;28;20183;-90
2023/08/19 11:28:40;;;;;;;7.68;3.75;;;30.90;99.90;;;;;;4976226;28;20191;-92
2023/08/19 11:31:21;;;;;;;5.05;3.50;;;31.10;99.90;;;;;;4976075;28;20175;-93
2023/08/19 11:33:47;;;;;;;4.20;3.55;;;31.20;98.80;;;;;;4964558;28;20601;-91
2023/08/19 11:36:13;;;;;;;6.10;3.83;;;31.20;99.90;;;;;;4967270;28;20268;-90
2023/08/19 11:38:39;;;;;;;4.82;3.47;;;31.20;99.90;;;;;;4972446;28;20585;-93
2023/08/19 11:41:05;;;;;;;4.22;3.53;;;31.20;99.90;;;;;;4972872;28;20521;-96
2023/08/19 11:43:44;;;;;;;4.57;3.75;;;31.30;99.40;;;;;;4970865;28;20222;-92
2023/08/19 11:46:11;;;;;;;3.92;3.53;;;31.30;99.30;;;;;;4963551;28;20270;-91
2023/08/19 11:48:42;;;;;;;6.63;3.58;;;31.40;99.90;;;;;;4975404;28;20180;-92
2023/08/19 11:51:13;;;;;;;5.97;3.42;;;31.50;99.00;;;;;;4975067;28;20176;-91
2023/08/19 11:53:47;;;;;;;5.60;3.70;;;31.50;99.40;;;;;;4963880;28;20212;-90
2023/08/19 11:56:13;;;;;;;4.70;3.45;;;31.50;99.90;;;;;;4956549;28;20208;-91
2023/08/19 11:58:55;;;;;;;4.57;3.53;;;31.60;99.40;;;;;;4959580;28;20619;-91
2023/08/19 12:01:26;;;;;;;4.85;3.75;;;31.70;99.50;;;;;;4974893;28;20195;-90
2023/08/19 12:03:54;;;;;;;9.73;3.45;;;31.80;98.40;;;;;;4991561;28;20195;-91
2023/08/19 12:06:20;;;;;;;7.28;3.40;;;31.90;99.90;;;;;;4976138;28;20172;-91
2023/08/19 12:08:49;;;;;;;6.07;3.67;;;31.80;99.00;;;;;;4990195;28;20250;-93
2023/08/19 12:11:24;;;;;;;5.53;3.63;;;31.90;98.90;;;;;;4967711;28;20275;-89
2023/08/19 12:13:50;;;;;;;4.43;3.03;;;31.90;99.40;;;;;;4973662;28;20207;-91
2023/08/19 12:16:17;;;;;;;4.35;3.10;;;31.90;97.60;;;;;;4975287;28;20207;-93
2023/08/19 12:18:46;;;;;;;5.47;3.50;;;31.90;97.50;;;;;;4973995;28;20212;-96
2023/08/19 12:21:13;;;;;;;5.72;3.33;;;31.90;98.30;;;;;;4973891;28;20327;-93
2023/08/19 12:23:38;;;;;;;6.60;3.30;;;31.90;98.20;;;;;;4971787;28;20270;-94
2023/08/19 12:26:04;;;;;;;4.07;3.60;;;31.90;97.00;;;;;;4974769;28;20227;-89
2023/08/19 12:28:31;;;;;;;4.10;3.20;;;31.90;96.90;;;;;;4974389;28;20184;-91
2023/08/19 12:30:57;;;;;;;7.85;3.03;;;32.00;97.70;;;;;;4990331;28;20202;-94
2023/08/19 12:33:23;;;;;;;5.72;3.13;;;32.00;96.80;;;;;;4973776;28;20583;-88
2023/08/19 12:35:51;;;;;;;9.38;3.05;;;31.90;97.20;;;;;;4974878;28;20188;-95
2023/08/19 12:38:19;;;;;;;3.83;2.90;;;31.80;97.00;;;;;;4974708;28;20196;-89
2023/08/19 12:40:46;;;;;;;6.53;2.90;;;31.60;97.40;;;;;;4974441;28;20184;-93
2023/08/19 12:43:13;;;;;;;8.25;3.13;;;31.30;97.80;;;;;;4973282;28;20192;-93